createdAt,value
2019-02-20T00:02:03.292Z,7.30
2019-02-20T00:04:31.921Z,7.08
2019-02-20T00:07:00.551Z,8.23
2019-02-20T00:09:29.208Z,6.10
2019-02-20T00:11:57.881Z,8.93
2019-02-20T00:14:26.486Z,7.42
2019-02-20T00:16:55.102Z,9.00
2019-02-20T00:19:23.748Z,8.90
2019-02-20T00:21:52.395Z,8.33
2019-02-20T00:24:21.030Z,6.67
2019-02-20T00:26:49.762Z,6.90
2019-02-20T00:29:18.374Z,6.25
2019-02-20T00:31:46.983Z,8.10
2019-02-20T00:34:15.605Z,5.95
2019-02-20T00:36:44.232Z,7.67
2019-02-20T00:39:12.862Z,6.50
2019-02-20T00:41:41.512Z,6.83
2019-02-20T00:44:29.117Z,9.03
2019-02-20T00:47:16.771Z,7.87
2019-02-20T00:49:47.992Z,8.20
2019-02-20T00:54:58.407Z,8.08
2019-02-20T00:57:27.090Z,7.20
2019-02-20T00:59:55.706Z,8.48
2019-02-20T01:02:24.345Z,12.18
2019-02-20T01:04:53.066Z,8.73
2019-02-20T01:07:21.671Z,9.30
2019-02-20T01:09:50.285Z,7.08
2019-02-20T01:12:18.978Z,9.68
2019-02-20T01:14:47.572Z,7.92
2019-02-20T01:17:16.211Z,8.43
2019-02-20T01:19:44.899Z,5.90
2019-02-20T01:22:13.512Z,6.53
2019-02-20T01:24:42.149Z,5.67
2019-02-20T01:27:10.783Z,7.75
2019-02-20T01:29:39.411Z,8.43
2019-02-20T01:32:08.030Z,6.12
2019-02-20T01:34:36.655Z,7.62
2019-02-20T01:37:05.259Z,8.48
2019-02-20T01:39:33.994Z,8.40
2019-02-20T01:42:02.619Z,6.42
2019-02-20T01:44:31.267Z,5.62
2019-02-20T01:46:59.911Z,8.28
2019-02-20T01:49:28.529Z,6.95
2019-02-20T01:51:57.154Z,5.83
2019-02-20T01:54:25.872Z,7.47
2019-02-20T01:56:54.465Z,11.57
2019-02-20T01:59:23.108Z,7.08
2019-02-20T02:01:51.724Z,8.40
2019-02-20T02:04:20.369Z,7.20
2019-02-20T02:06:48.981Z,9.40
2019-02-20T02:09:17.624Z,10.23
2019-02-20T02:11:46.238Z,10.32
2019-02-20T02:14:14.868Z,9.25
2019-02-20T02:16:43.489Z,7.15
2019-02-20T02:19:12.114Z,11.88
2019-02-20T02:21:40.840Z,11.12
2019-02-20T02:24:09.448Z,11.08
2019-02-20T02:26:38.077Z,11.48
2019-02-20T02:29:06.883Z,9.13
2019-02-20T02:31:35.480Z,10.72
2019-02-20T02:34:04.105Z,10.63
2019-02-20T02:36:32.712Z,11.33
2019-02-20T02:39:01.329Z,9.80
2019-02-20T02:41:30.002Z,10.78
2019-02-20T02:43:58.619Z,11.35
2019-02-20T02:46:27.324Z,11.95
2019-02-20T02:48:56.041Z,13.65
2019-02-20T02:51:24.664Z,11.35
2019-02-20T02:53:53.294Z,10.63
2019-02-20T02:56:22.008Z,9.58
2019-02-20T02:58:50.730Z,11.00
2019-02-20T03:01:19.379Z,10.75
2019-02-20T03:03:48.001Z,10.90
2019-02-20T03:06:16.639Z,14.23
2019-02-20T03:08:45.265Z,9.28
2019-02-20T03:11:13.887Z,12.80
2019-02-20T03:13:42.613Z,13.38
2019-02-20T03:16:11.295Z,11.45
2019-02-20T03:18:39.911Z,10.60
2019-02-20T03:21:08.517Z,13.98
2019-02-20T03:23:40.185Z,17.77
2019-02-20T03:26:07.490Z,10.72
2019-02-20T03:28:36.130Z,13.20
2019-02-20T03:31:04.744Z,14.05
2019-02-20T03:33:33.360Z,16.35
2019-02-20T03:36:01.996Z,14.45
2019-02-20T03:38:30.793Z,14.07
2019-02-20T03:40:59.461Z,17.25
2019-02-20T03:43:28.086Z,13.38
2019-02-20T03:45:56.824Z,12.07
2019-02-20T03:48:25.479Z,15.13
2019-02-20T03:50:54.100Z,18.92
2019-02-20T03:53:22.721Z,14.75
2019-02-20T03:55:51.414Z,15.60
2019-02-20T03:58:20.119Z,15.20
2019-02-20T04:00:48.793Z,14.18
2019-02-20T04:03:17.418Z,11.33
2019-02-20T04:05:46.095Z,15.70
2019-02-20T04:08:14.723Z,12.65
2019-02-20T04:10:43.377Z,19.95
2019-02-20T04:13:11.975Z,17.80
2019-02-20T04:18:16.369Z,14.13
2019-02-20T04:20:45.043Z,13.32
2019-02-20T04:23:13.660Z,18.45
2019-02-20T04:25:42.300Z,16.50
2019-02-20T04:28:10.926Z,13.30
2019-02-20T04:30:39.558Z,16.90
2019-02-20T04:33:08.171Z,12.18
2019-02-20T04:35:36.817Z,16.75
2019-02-20T04:38:05.423Z,19.70
2019-02-20T04:40:34.064Z,16.40
2019-02-20T04:43:02.685Z,17.00
2019-02-20T04:45:31.319Z,17.23
2019-02-20T04:47:59.956Z,18.77
2019-02-20T04:50:28.603Z,26.05
2019-02-20T04:52:57.251Z,18.45
2019-02-20T04:55:25.898Z,20.00
2019-02-20T04:58:14.635Z,17.75
2019-02-20T05:00:43.275Z,25.75
2019-02-20T05:03:11.992Z,18.65
2019-02-20T05:05:40.709Z,21.62
2019-02-20T05:08:09.378Z,21.75
2019-02-20T05:10:37.979Z,20.37
2019-02-20T05:13:06.617Z,23.65
2019-02-20T05:15:35.258Z,17.90
2019-02-20T05:18:03.972Z,20.75
2019-02-20T05:20:32.690Z,18.90
2019-02-20T05:23:01.310Z,16.55
2019-02-20T05:25:29.939Z,21.48
2019-02-20T05:27:58.554Z,17.77
2019-02-20T05:30:27.227Z,18.17
2019-02-20T05:32:55.861Z,19.20
2019-02-20T05:35:24.474Z,19.55
2019-02-20T05:37:53.098Z,22.27
2019-02-20T05:40:21.715Z,21.97
2019-02-20T05:42:50.423Z,19.70
2019-02-20T05:45:19.062Z,20.10
2019-02-20T05:47:47.780Z,22.25
2019-02-20T05:50:16.381Z,18.17
2019-02-20T05:52:45.039Z,17.80
2019-02-20T05:55:13.744Z,18.48
2019-02-20T05:57:42.375Z,17.80
2019-02-20T06:00:11.541Z,23.18
2019-02-20T06:02:40.260Z,22.50
2019-02-20T06:05:09.031Z,20.95
2019-02-20T06:07:37.776Z,23.77
2019-02-20T06:10:07.193Z,21.20
2019-02-20T06:12:35.820Z,21.23
2019-02-20T06:15:04.766Z,25.82
2019-02-20T06:17:33.394Z,20.55
2019-02-20T06:20:02.032Z,24.52
2019-02-20T06:22:30.668Z,26.12
2019-02-20T06:24:59.313Z,22.52
2019-02-20T06:27:27.954Z,19.57
2019-02-20T06:29:56.585Z,21.93
2019-02-20T06:32:25.214Z,23.27
2019-02-20T06:34:53.850Z,25.43
2019-02-20T06:37:22.504Z,28.75
2019-02-20T06:39:51.241Z,31.07
2019-02-20T06:42:19.879Z,29.85
2019-02-20T06:44:48.521Z,36.03
2019-02-20T06:47:17.169Z,30.35
2019-02-20T06:49:46.142Z,29.90
2019-02-20T06:52:14.752Z,28.60
2019-02-20T06:54:43.527Z,27.27
2019-02-20T06:57:12.426Z,30.82
2019-02-20T06:59:41.132Z,28.32
2019-02-20T07:02:09.842Z,28.45
2019-02-20T07:04:38.477Z,34.58
2019-02-20T07:07:31.990Z,34.40
2019-02-20T07:10:39.134Z,29.15
2019-02-20T07:13:32.191Z,28.42
2019-02-20T07:16:25.656Z,22.65
2019-02-20T07:19:32.760Z,26.62
2019-02-20T07:22:24.726Z,25.45
2019-02-20T07:25:31.866Z,26.40
2019-02-20T07:28:38.963Z,27.93
2019-02-20T07:31:07.820Z,21.25
2019-02-20T07:33:36.429Z,24.92
2019-02-20T07:36:05.508Z,27.65
2019-02-20T07:38:34.173Z,28.70
2019-02-20T07:41:03.059Z,24.90
2019-02-20T07:43:31.675Z,24.55
2019-02-20T07:46:00.305Z,25.30
2019-02-20T07:48:28.956Z,29.95
2019-02-20T07:50:57.593Z,24.85
2019-02-20T07:53:26.217Z,24.18
2019-02-20T07:55:54.889Z,21.77
2019-02-20T07:58:23.955Z,24.55
2019-02-20T08:00:52.691Z,29.60
2019-02-20T08:03:21.312Z,28.77
2019-02-20T08:05:50.008Z,25.72
2019-02-20T18:38:26.862Z,7.70
2019-02-20T18:40:55.859Z,11.83
2019-02-20T18:43:24.871Z,9.17
2019-02-20T18:45:53.701Z,7.60
2019-02-20T18:48:22.482Z,5.75
2019-02-20T18:50:51.223Z,10.10
2019-02-20T18:53:20.348Z,7.58
2019-02-20T18:55:49.090Z,12.35
2019-02-20T18:58:19.012Z,7.40
2019-02-20T19:00:48.558Z,6.50
2019-02-20T19:03:18.049Z,8.78
2019-02-20T19:05:46.876Z,6.03
2019-02-20T19:08:56.841Z,10.80
2019-02-20T19:11:32.546Z,10.85
2019-02-20T19:14:23.312Z,8.48
2019-02-20T19:17:30.492Z,7.95
2019-02-20T19:20:37.634Z,7.47
2019-02-20T19:26:20.585Z,14.38
2019-02-20T19:29:27.889Z,78.20
2019-02-20T19:32:27.336Z,19.85
2019-02-20T19:35:34.487Z,26.45
2019-02-20T19:38:41.765Z,10.90
2019-02-20T19:41:33.208Z,10.98
2019-02-20T19:47:33.947Z,8.48
2019-02-20T19:53:38.053Z,10.13
2019-02-20T19:56:32.111Z,8.93
2019-02-20T19:59:24.893Z,11.85
2019-02-20T20:02:32.493Z,9.55
2019-02-20T20:05:39.678Z,8.85
2019-02-20T20:08:46.876Z,9.33
2019-02-20T20:11:54.166Z,9.05
2019-02-20T20:17:59.670Z,9.35
2019-02-20T20:21:06.919Z,11.15
2019-02-20T20:24:14.138Z,9.30
2019-02-20T20:27:14.748Z,9.98
2019-02-20T20:30:27.960Z,9.68
2019-02-20T20:33:35.210Z,11.55
2019-02-20T20:36:42.409Z,8.05
2019-02-20T20:42:52.035Z,10.60
2019-02-20T20:48:47.392Z,10.50
2019-02-20T20:51:54.511Z,10.98
2019-02-20T20:55:01.803Z,12.95
2019-02-20T20:57:54.827Z,11.55
2019-02-20T21:03:16.931Z,14.93
2019-02-20T21:06:24.140Z,14.25
2019-02-20T21:09:15.048Z,13.50
2019-02-20T21:21:45.401Z,11.93
2019-02-20T21:24:39.262Z,11.68
2019-02-20T21:27:32.876Z,9.93
2019-02-20T21:30:40.045Z,10.78
2019-02-20T21:36:15.619Z,8.35
2019-02-20T21:39:07.964Z,10.93
2019-02-20T21:42:15.075Z,8.83
2019-02-20T21:45:05.659Z,10.20
2019-02-20T21:48:12.829Z,11.53
2019-02-20T21:51:07.049Z,12.00
2019-02-20T21:54:06.659Z,8.55
2019-02-20T21:57:13.844Z,7.37
2019-02-20T22:00:06.327Z,9.03
2019-02-20T22:03:13.454Z,9.93
2019-02-20T22:06:04.441Z,9.05
2019-02-20T22:08:57.991Z,10.72
2019-02-20T22:11:49.438Z,12.03
2019-02-20T22:14:56.596Z,8.80
2019-02-20T22:18:03.799Z,14.30
2019-02-20T22:20:59.720Z,9.58
2019-02-20T22:23:53.403Z,8.28
2019-02-20T22:26:47.300Z,7.95
2019-02-20T22:29:54.566Z,13.72
2019-02-20T22:35:53.337Z,11.08
2019-02-20T22:38:48.272Z,9.75
2019-02-20T22:41:55.478Z,12.73
2019-02-20T22:44:54.417Z,15.03
2019-02-20T22:47:47.148Z,13.50
2019-02-20T22:50:54.269Z,13.65
2019-02-20T22:54:01.369Z,10.82
2019-02-20T22:57:08.521Z,13.65
2019-02-20T23:00:02.654Z,10.23
2019-02-20T23:03:10.731Z,13.38
2019-02-20T23:06:05.204Z,14.03
2019-02-20T23:09:12.327Z,10.85
2019-02-20T23:12:19.449Z,14.13
2019-02-20T23:15:07.292Z,13.68
2019-02-20T23:17:35.924Z,13.13
2019-02-20T23:20:04.696Z,11.85
2019-02-20T23:22:33.345Z,12.82
2019-02-20T23:25:01.943Z,10.85
2019-02-20T23:27:30.618Z,15.10
2019-02-20T23:29:59.246Z,10.28
2019-02-20T23:32:27.876Z,16.25
2019-02-20T23:34:56.501Z,14.23
2019-02-20T23:37:25.106Z,12.05
2019-02-20T23:39:53.708Z,11.15
2019-02-20T23:42:22.308Z,10.78
2019-02-20T23:44:50.921Z,13.13
2019-02-20T23:47:19.540Z,12.68
2019-02-20T23:49:48.157Z,9.75
2019-02-20T23:52:16.761Z,10.95
2019-02-20T23:54:45.380Z,11.83
2019-02-20T23:57:13.992Z,14.85
2019-02-20T23:59:42.611Z,13.13
